createdAt,value
2022-11-10T00:00:01.355Z,90.45
2022-11-10T00:01:01.368Z,90.14
2022-11-10T00:02:01.348Z,89.63
2022-11-10T00:03:01.343Z,89.67
2022-11-10T00:04:01.397Z,90.29
2022-11-10T00:05:01.338Z,90.29
2022-11-10T00:06:01.338Z,90.66
2022-11-10T00:07:01.397Z,90.39
2022-11-10T00:08:01.330Z,90.25
2022-11-10T00:09:01.331Z,90.29
2022-11-10T00:10:01.330Z,90.59
2022-11-10T00:11:01.419Z,90.45
2022-11-10T00:12:01.320Z,90.75
2022-11-10T00:13:04.374Z,90.96
2022-11-10T00:14:01.349Z,91.72
2022-11-10T00:15:01.322Z,91.61
2022-11-10T00:16:01.316Z,91.37
2022-11-10T00:17:01.337Z,91.27
2022-11-10T00:18:01.308Z,91.47
2022-11-10T00:19:01.305Z,91.37
2022-11-10T00:20:01.313Z,91.11
2022-11-10T00:21:01.300Z,91.06
2022-11-10T00:22:01.301Z,91.00
2022-11-10T00:23:01.325Z,90.96
2022-11-10T00:24:01.296Z,91.00
2022-11-10T00:25:01.289Z,91.61
2022-11-10T00:26:01.293Z,91.88
2022-11-10T00:27:01.287Z,91.78
2022-11-10T00:28:01.284Z,91.82
2022-11-10T00:29:01.283Z,91.78
2022-11-10T00:30:01.300Z,91.78
2022-11-10T00:31:01.282Z,92.23
2022-11-10T00:32:01.273Z,91.16
2022-11-10T00:33:01.361Z,92.02
2022-11-10T00:34:01.268Z,91.31
2022-11-10T00:35:01.267Z,91.78
2022-11-10T00:36:01.267Z,91.57
2022-11-10T00:37:01.261Z,91.67
2022-11-10T00:38:01.262Z,91.67
2022-11-10T00:39:01.259Z,91.20
2022-11-10T00:40:01.256Z,91.06
2022-11-10T00:41:01.253Z,90.39
2022-11-10T00:42:01.255Z,90.55
2022-11-10T00:43:01.249Z,91.67
2022-11-10T00:44:01.248Z,91.20
2022-11-10T00:45:01.242Z,91.11
2022-11-10T00:46:01.248Z,92.13
2022-11-10T00:47:01.240Z,91.72
2022-11-10T00:48:01.237Z,91.41
2022-11-10T00:49:01.255Z,92.13
2022-11-10T00:50:01.237Z,92.02
2022-11-10T00:51:01.230Z,92.23
2022-11-10T00:52:01.227Z,92.23
2022-11-10T00:53:01.230Z,91.76
2022-11-10T00:54:01.230Z,92.13
2022-11-10T00:55:01.224Z,92.23
2022-11-10T00:56:01.221Z,92.23
2022-11-10T00:57:01.219Z,91.52
2022-11-10T00:58:01.215Z,92.13
2022-11-10T00:59:01.226Z,91.72
2022-11-10T01:00:01.213Z,92.02
2022-11-10T01:01:01.249Z,92.33
2022-11-10T01:02:01.207Z,92.13
2022-11-10T01:03:01.199Z,92.17
2022-11-10T01:04:01.202Z,92.43
2022-11-10T01:05:01.216Z,92.43
2022-11-10T01:06:01.196Z,92.54
2022-11-10T01:07:01.368Z,92.78
2022-11-10T01:08:01.191Z,93.25
2022-11-10T01:09:01.233Z,92.54
2022-11-10T01:10:01.244Z,92.64
2022-11-10T01:11:01.232Z,92.54
2022-11-10T01:12:01.229Z,92.27
2022-11-10T01:13:01.230Z,92.27
2022-11-10T01:14:01.223Z,91.76
2022-11-10T01:15:01.174Z,92.37
2022-11-10T01:16:01.168Z,91.76
2022-11-10T01:17:01.167Z,91.96
2022-11-10T01:18:01.163Z,92.17
2022-11-10T01:19:01.165Z,92.37
2022-11-10T01:20:01.159Z,92.07
2022-11-10T01:21:01.175Z,92.07
2022-11-10T01:22:01.165Z,91.86
2022-11-10T01:23:01.152Z,90.74
2022-11-10T01:24:01.154Z,91.96
2022-11-10T01:25:01.146Z,92.17
2022-11-10T01:26:01.143Z,91.86
2022-11-10T01:27:01.145Z,91.80
2022-11-10T01:28:01.137Z,91.25
2022-11-10T01:29:01.137Z,91.66
2022-11-10T01:30:01.133Z,91.70
2022-11-10T01:31:01.134Z,91.86
2022-11-10T01:32:01.328Z,92.07
2022-11-10T01:33:01.126Z,91.96
2022-11-10T01:34:01.126Z,92.21
2022-11-10T01:35:01.122Z,91.46
2022-11-10T01:36:01.120Z,91.29
2022-11-10T01:37:01.137Z,91.50
2022-11-10T01:38:01.116Z,91.29
2022-11-10T01:39:01.128Z,91.29
2022-11-10T01:40:01.256Z,90.88
2022-11-10T01:41:01.112Z,90.78
2022-11-10T01:42:01.105Z,88.33
2022-11-10T01:43:01.107Z,86.18
2022-11-10T01:44:01.104Z,86.73
2022-11-10T01:45:01.100Z,87.45
2022-11-10T01:46:01.098Z,88.37
2022-11-10T01:47:01.101Z,88.47
2022-11-10T01:48:01.089Z,87.55
2022-11-10T01:49:01.091Z,85.44
2022-11-10T01:50:01.084Z,84.42
2022-11-10T01:51:01.084Z,84.52
2022-11-10T01:52:01.078Z,85.58
2022-11-10T01:53:01.104Z,85.79
2022-11-10T01:54:01.093Z,85.52
2022-11-10T01:55:01.083Z,84.80
2022-11-10T01:56:01.072Z,85.63
2022-11-10T01:57:01.071Z,85.97
2022-11-10T01:58:01.062Z,86.99
2022-11-10T01:59:01.063Z,86.90
2022-11-10T02:00:01.060Z,86.22
2022-11-10T02:01:01.110Z,86.73
2022-11-10T02:02:01.063Z,87.85
2022-11-10T02:03:01.049Z,88.00
2022-11-10T02:04:01.045Z,88.10
2022-11-10T02:05:01.043Z,88.51
2022-11-10T02:06:01.041Z,88.96
2022-11-10T02:07:01.062Z,89.07
2022-11-10T02:08:01.032Z,90.30
2022-11-10T02:09:01.050Z,91.18
2022-11-10T02:10:01.026Z,90.56
2022-11-10T02:11:01.032Z,89.95
2022-11-10T02:12:01.022Z,89.95
2022-11-10T02:13:01.023Z,89.07
2022-11-10T02:14:01.016Z,89.07
2022-11-10T02:15:01.013Z,89.78
2022-11-10T02:16:01.008Z,90.50
2022-11-10T02:17:01.008Z,90.71
2022-11-10T02:18:01.013Z,90.20
2022-11-10T02:19:01.005Z,88.66
2022-11-10T02:20:00.999Z,88.35
2022-11-10T02:21:00.998Z,88.56
2022-11-10T02:22:00.993Z,88.70
2022-11-10T02:23:00.991Z,89.42
2022-11-10T02:24:00.991Z,90.55
2022-11-10T02:25:01.017Z,90.85
2022-11-10T02:26:00.981Z,91.06
2022-11-10T02:27:00.977Z,91.74
2022-11-10T02:28:00.972Z,92.25
2022-11-10T02:29:00.980Z,91.94
2022-11-10T02:30:00.967Z,90.61
2022-11-10T02:31:00.963Z,89.69
2022-11-10T02:32:00.959Z,88.76
2022-11-10T02:33:00.959Z,89.48
2022-11-10T02:34:00.955Z,90.30
2022-11-10T02:35:00.950Z,90.40
2022-11-10T02:36:00.949Z,89.83
2022-11-10T02:37:00.948Z,90.55
2022-11-10T02:38:00.955Z,89.93
2022-11-10T02:39:00.944Z,91.06
2022-11-10T02:40:00.952Z,90.95
2022-11-10T02:41:00.961Z,91.67
2022-11-10T02:42:00.931Z,91.53
2022-11-10T02:43:00.926Z,91.84
2022-11-10T02:44:00.947Z,90.20
2022-11-10T02:45:00.925Z,88.76
2022-11-10T02:46:00.923Z,88.70
2022-11-10T02:47:00.916Z,89.21
2022-11-10T02:48:00.912Z,89.11
2022-11-10T02:49:00.909Z,89.72
2022-11-10T02:50:00.905Z,89.62
2022-11-10T02:51:00.906Z,89.62
2022-11-10T02:52:00.900Z,89.93
2022-11-10T02:53:00.900Z,89.62
2022-11-10T02:54:00.894Z,90.44
2022-11-10T02:55:00.891Z,90.44
2022-11-10T02:56:00.886Z,90.75
2022-11-10T02:57:00.900Z,91.37
2022-11-10T02:58:00.879Z,92.29
2022-11-10T02:59:00.875Z,90.40
2022-11-10T03:00:00.873Z,89.62
2022-11-10T03:01:00.908Z,89.37
2022-11-10T03:02:00.867Z,89.72
2022-11-10T03:03:00.864Z,88.39
2022-11-10T03:04:00.867Z,88.18
2022-11-10T03:05:00.855Z,88.90
2022-11-10T03:06:00.854Z,88.70
2022-11-10T03:07:00.997Z,88.18
2022-11-10T03:08:00.853Z,88.18
2022-11-10T03:09:00.848Z,88.23
2022-11-10T03:10:00.840Z,87.20
2022-11-10T03:11:00.839Z,87.30
2022-11-10T03:12:00.841Z,87.55
2022-11-10T03:13:00.851Z,88.68
2022-11-10T03:14:02.558Z,89.70
2022-11-10T03:15:00.826Z,89.64
2022-11-10T03:16:00.824Z,90.26
2022-11-10T03:17:00.819Z,91.14
2022-11-10T03:18:00.819Z,90.94
2022-11-10T03:19:00.822Z,90.98
2022-11-10T03:20:00.807Z,89.34
2022-11-10T03:21:00.808Z,88.82
2022-11-10T03:22:00.802Z,89.03
2022-11-10T03:23:00.800Z,89.75
2022-11-10T03:24:00.796Z,90.30
2022-11-10T03:25:00.791Z,90.98
2022-11-10T03:26:00.790Z,91.74
2022-11-10T03:27:00.786Z,92.42
2022-11-10T03:28:00.780Z,91.49
2022-11-10T03:29:00.800Z,91.39
2022-11-10T03:30:00.779Z,90.88
2022-11-10T03:31:00.773Z,91.39
2022-11-10T03:32:00.767Z,91.29
2022-11-10T03:33:00.768Z,92.27
2022-11-10T03:34:00.762Z,91.66
2022-11-10T03:35:00.760Z,91.35
2022-11-10T03:36:00.753Z,91.45
2022-11-10T03:37:00.750Z,91.66
2022-11-10T03:38:00.747Z,90.83
2022-11-10T03:39:00.747Z,90.94
2022-11-10T03:40:00.740Z,91.45
2022-11-10T03:42:00.734Z,91.66
2022-11-10T03:43:00.729Z,91.97
2022-11-10T03:44:00.727Z,91.76
2022-11-10T03:45:00.748Z,92.38
2022-11-10T03:46:00.720Z,92.58
2022-11-10T03:47:00.720Z,92.69
2022-11-10T03:48:00.713Z,92.44
2022-11-10T03:49:00.715Z,91.72
2022-11-10T03:50:00.706Z,91.20
2022-11-10T03:51:00.709Z,90.80
2022-11-10T03:52:00.700Z,90.94
2022-11-10T03:53:00.698Z,91.14
2022-11-10T03:54:00.695Z,91.35
2022-11-10T03:55:03.474Z,91.66
2022-11-10T03:56:00.686Z,91.97
2022-11-10T03:57:00.685Z,92.17
2022-11-10T03:58:00.678Z,91.14
2022-11-10T03:59:00.678Z,90.32
2022-11-10T04:00:00.683Z,90.53
2022-11-10T04:01:00.690Z,90.88
2022-11-10T04:02:00.763Z,91.08
2022-11-10T04:03:00.663Z,91.97
2022-11-10T04:04:00.658Z,92.79
2022-11-10T04:05:00.661Z,92.27
2022-11-10T04:06:00.656Z,92.79
2022-11-10T04:07:00.809Z,92.17
2022-11-10T04:08:00.647Z,92.17
2022-11-10T04:09:00.653Z,91.25
2022-11-10T04:10:00.638Z,90.01
2022-11-10T04:11:00.636Z,89.40
2022-11-10T04:12:00.632Z,89.81
2022-11-10T04:13:00.635Z,90.32
2022-11-10T04:14:00.621Z,90.12
2022-11-10T04:15:00.622Z,88.98
2022-11-10T04:16:00.618Z,89.40
2022-11-10T04:17:00.632Z,88.78
2022-11-10T04:18:00.610Z,88.10
2022-11-10T04:19:00.610Z,87.49
2022-11-10T04:20:00.601Z,88.62
2022-11-10T04:21:00.598Z,89.75
2022-11-10T04:22:00.597Z,88.92
2022-11-10T04:23:00.600Z,88.51
2022-11-10T04:24:00.587Z,87.90
2022-11-10T04:25:00.588Z,88.00
2022-11-10T04:26:00.579Z,87.84
2022-11-10T04:27:00.580Z,88.76
2022-11-10T04:28:00.572Z,89.38
2022-11-10T04:29:00.573Z,89.94
2022-11-10T04:30:00.568Z,91.06
2022-11-10T04:31:00.568Z,90.34
2022-11-10T04:32:00.560Z,90.45
2022-11-10T04:33:00.574Z,90.66
2022-11-10T04:34:00.557Z,90.55
2022-11-10T04:35:00.554Z,90.96
2022-11-10T04:36:00.545Z,91.27
2022-11-10T04:37:00.544Z,91.17
2022-11-10T04:38:00.537Z,91.38
2022-11-10T04:39:00.536Z,92.40
2022-11-10T04:40:00.535Z,92.10
2022-11-10T04:41:00.528Z,92.05
2022-11-10T04:42:02.650Z,92.36
2022-11-10T04:43:00.528Z,92.57
2022-11-10T04:44:00.517Z,91.44
2022-11-10T04:45:00.512Z,90.20
2022-11-10T04:46:00.515Z,89.69
2022-11-10T04:47:00.510Z,89.54
2022-11-10T04:48:00.501Z,89.69
2022-11-10T04:49:00.520Z,89.07
2022-11-10T04:50:00.494Z,88.96
2022-11-10T04:51:00.503Z,88.70
2022-11-10T04:52:00.537Z,88.80
2022-11-10T04:53:00.487Z,89.31
2022-11-10T04:54:00.480Z,90.14
2022-11-10T04:55:00.480Z,89.94
2022-11-10T04:56:00.473Z,90.69
2022-11-10T04:57:00.471Z,90.90
2022-11-10T04:58:00.466Z,90.18
2022-11-10T04:59:00.463Z,89.97
2022-11-10T05:00:00.462Z,90.43
2022-11-10T05:01:00.521Z,91.42
2022-11-10T05:02:00.450Z,91.83
2022-11-10T05:03:00.449Z,91.31
2022-11-10T05:04:00.444Z,91.72
2022-11-10T05:05:00.460Z,92.34
2022-11-10T05:06:00.434Z,92.55
2022-11-10T05:07:00.613Z,92.76
2022-11-10T05:08:00.430Z,92.71
2022-11-10T05:09:00.429Z,94.20
2022-11-10T05:10:00.421Z,92.71
2022-11-10T05:11:00.422Z,92.82
2022-11-10T05:12:00.514Z,92.40
2022-11-10T05:13:00.418Z,92.92
2022-11-10T05:14:00.405Z,91.99
2022-11-10T05:15:00.419Z,92.82
2022-11-10T05:16:00.401Z,93.95
2022-11-10T05:17:00.547Z,93.95
2022-11-10T05:18:00.391Z,93.59
2022-11-10T05:19:00.395Z,94.26
2022-11-10T05:20:00.385Z,94.11
2022-11-10T05:21:00.407Z,94.31
2022-11-10T05:22:00.529Z,93.59
2022-11-10T05:23:00.379Z,93.18
2022-11-10T05:24:00.368Z,92.67
2022-11-10T05:25:00.365Z,92.77
2022-11-10T05:26:00.363Z,92.71
2022-11-10T05:27:00.362Z,92.82
2022-11-10T05:28:00.353Z,93.59
2022-11-10T05:29:00.352Z,94.21
2022-11-10T05:30:00.350Z,94.05
2022-11-10T05:31:00.348Z,94.31
2022-11-10T05:32:00.345Z,94.52
2022-11-10T05:33:00.343Z,94.73
2022-11-10T05:34:00.352Z,93.86
2022-11-10T05:35:00.350Z,93.65
2022-11-10T05:36:00.325Z,93.65
2022-11-10T05:37:00.339Z,94.11
2022-11-10T05:38:00.327Z,94.07
2022-11-10T05:39:00.311Z,94.27
2022-11-10T05:40:00.317Z,94.27
2022-11-10T05:41:00.324Z,94.37
2022-11-10T05:42:00.304Z,94.58
2022-11-10T05:43:00.302Z,95.09
2022-11-10T05:44:00.297Z,94.89
2022-11-10T05:45:00.301Z,94.89
2022-11-10T05:46:00.300Z,95.56
2022-11-10T05:47:00.285Z,95.77
2022-11-10T05:48:00.289Z,95.67
2022-11-10T05:49:00.279Z,95.77
2022-11-10T05:50:00.276Z,95.56
2022-11-10T05:51:00.280Z,95.87
2022-11-10T05:52:00.264Z,95.56
2022-11-10T05:53:00.277Z,95.56
2022-11-10T05:54:00.289Z,95.67
2022-11-10T05:55:00.254Z,95.56
2022-11-10T05:56:00.257Z,95.42
2022-11-10T05:57:00.260Z,95.21
2022-11-10T05:58:00.243Z,95.62
2022-11-10T05:59:00.235Z,95.72
2022-11-10T06:00:00.235Z,95.27
2022-11-10T06:01:00.232Z,95.57
2022-11-10T06:02:00.235Z,94.65
2022-11-10T06:03:00.233Z,94.08
2022-11-10T06:04:00.313Z,93.93
2022-11-10T06:05:00.218Z,93.83
2022-11-10T06:06:00.221Z,93.93
2022-11-10T06:07:00.271Z,93.93
2022-11-10T06:08:00.214Z,93.63
2022-11-10T06:09:00.221Z,92.91
2022-11-10T06:10:00.215Z,92.70
2022-11-10T06:11:00.204Z,92.44
2022-11-10T06:12:00.194Z,92.50
2022-11-10T06:13:00.191Z,92.40
2022-11-10T06:14:00.185Z,92.13
2022-11-10T06:15:00.191Z,91.88
2022-11-10T06:16:00.178Z,91.67
2022-11-10T06:17:00.173Z,91.57
2022-11-10T06:18:00.187Z,91.57
2022-11-10T06:19:00.178Z,91.82
2022-11-10T06:20:00.164Z,92.54
2022-11-10T06:21:00.157Z,92.74
2022-11-10T06:22:05.009Z,92.54
2022-11-10T06:23:00.190Z,91.82
2022-11-10T06:24:00.155Z,92.33
2022-11-10T06:25:00.173Z,92.54
2022-11-10T06:26:00.147Z,92.33
2022-11-10T06:27:00.138Z,92.54
2022-11-10T06:28:00.136Z,92.70
2022-11-10T06:29:00.132Z,92.60
2022-11-10T06:30:00.133Z,92.44
2022-11-10T06:31:00.125Z,93.01
2022-11-10T06:32:00.120Z,93.63
2022-11-10T06:33:00.114Z,93.52
2022-11-10T06:34:00.115Z,94.14
2022-11-10T06:35:00.844Z,94.04
2022-11-10T06:36:00.108Z,93.52
2022-11-10T06:37:00.120Z,92.70
2022-11-10T06:38:00.102Z,92.29
2022-11-10T06:39:00.095Z,91.99
2022-11-10T06:40:00.096Z,91.37
2022-11-10T06:41:00.108Z,91.06
2022-11-10T06:42:00.089Z,91.06
2022-11-10T06:43:00.081Z,90.85
2022-11-10T06:44:00.091Z,89.56
2022-11-10T06:45:00.089Z,89.46
2022-11-10T06:46:00.092Z,89.56
2022-11-10T06:47:00.070Z,89.56
2022-11-10T06:48:00.069Z,89.70
2022-11-10T06:49:00.059Z,90.01
2022-11-10T06:50:00.063Z,91.25
2022-11-10T06:51:00.050Z,92.27
2022-11-10T06:52:00.048Z,92.79
2022-11-10T06:53:00.062Z,92.44
2022-11-10T06:54:00.054Z,92.23
2022-11-10T06:55:00.041Z,92.44
2022-11-10T06:56:00.034Z,92.74
2022-11-10T06:57:00.051Z,92.54
2022-11-10T06:58:00.029Z,92.54
2022-11-10T06:59:00.042Z,92.60
2022-11-10T07:00:00.035Z,92.44
2022-11-10T07:01:00.094Z,92.54
2022-11-10T07:02:00.013Z,92.54
2022-11-10T07:03:00.007Z,93.21
2022-11-10T07:04:18.721Z,93.42
2022-11-10T07:05:00.002Z,94.14
2022-11-10T07:06:00.001Z,93.83
2022-11-10T07:07:00.022Z,93.93
2022-11-10T07:07:59.997Z,94.04
2022-11-10T07:08:59.992Z,93.83
2022-11-10T07:10:05.699Z,92.29
2022-11-10T07:10:59.982Z,91.67
2022-11-10T07:11:59.978Z,90.75
2022-11-10T07:13:00.001Z,90.75
2022-11-10T07:13:59.968Z,90.80
2022-11-10T07:14:59.969Z,91.20
2022-11-10T07:15:59.963Z,91.72
2022-11-10T07:16:59.956Z,92.33
2022-11-10T07:17:59.957Z,92.23
2022-11-10T07:18:59.954Z,92.23
2022-11-10T07:19:59.948Z,92.95
2022-11-10T07:20:59.943Z,93.05
2022-11-10T07:21:59.940Z,93.77
2022-11-10T07:22:59.945Z,93.67
2022-11-10T07:23:59.933Z,92.85
2022-11-10T07:24:59.933Z,92.23
2022-11-10T07:25:59.927Z,92.95
2022-11-10T07:26:59.921Z,92.74
2022-11-10T07:27:59.923Z,92.95
2022-11-10T07:28:59.946Z,93.46
2022-11-10T07:29:59.916Z,93.77
2022-11-10T07:30:59.908Z,94.08
2022-11-10T07:31:59.908Z,93.87
2022-11-10T07:32:59.899Z,93.93
2022-11-10T07:33:59.896Z,94.29
2022-11-10T07:34:59.895Z,94.55
2022-11-10T07:35:59.893Z,94.76
2022-11-10T07:36:59.883Z,95.27
2022-11-10T07:37:59.883Z,95.57
2022-11-10T07:38:59.882Z,95.68
2022-11-10T07:39:59.946Z,95.68
2022-11-10T07:40:59.878Z,95.23
2022-11-10T07:41:59.868Z,95.23
2022-11-10T07:42:59.863Z,95.64
2022-11-10T07:43:59.860Z,95.64
2022-11-10T07:44:59.872Z,95.84
2022-11-10T07:45:59.854Z,95.64
2022-11-10T07:46:59.848Z,95.94
2022-11-10T07:47:59.848Z,95.64
2022-11-10T07:48:59.841Z,95.59
2022-11-10T07:49:59.840Z,95.69
2022-11-10T07:50:59.835Z,96.10
2022-11-10T07:51:59.832Z,95.90
2022-11-10T07:52:59.826Z,95.79
2022-11-10T07:53:59.823Z,95.59
2022-11-10T07:54:59.823Z,96.31
2022-11-10T07:55:59.823Z,96.20
2022-11-10T07:56:59.819Z,96.10
2022-11-10T07:57:59.812Z,96.31
2022-11-10T07:58:59.806Z,96.06
2022-11-10T07:59:59.801Z,96.06
2022-11-10T08:00:59.817Z,96.16
2022-11-10T08:01:59.881Z,96.16
2022-11-10T08:02:59.792Z,96.37
2022-11-10T08:03:59.789Z,96.47
2022-11-10T08:04:59.785Z,96.57
2022-11-10T08:05:59.782Z,96.53
2022-11-10T08:06:59.944Z,96.63
2022-11-10T08:07:59.776Z,97.24
2022-11-10T08:08:59.773Z,97.24
2022-11-10T08:09:59.774Z,97.55
2022-11-10T08:10:59.770Z,97.80
2022-11-10T08:11:59.768Z,97.75
2022-11-10T08:12:59.757Z,98.37
2022-11-10T08:13:59.763Z,97.96
2022-11-10T08:14:59.754Z,97.96
2022-11-10T08:15:59.747Z,97.96
2022-11-10T08:16:59.765Z,98.37
2022-11-10T08:17:59.744Z,98.47
2022-11-10T08:18:59.739Z,99.09
2022-11-10T08:19:59.742Z,99.19
2022-11-10T08:20:59.732Z,98.88
2022-11-10T08:21:59.732Z,98.78
2022-11-10T08:22:59.727Z,98.88
2022-11-10T08:23:59.724Z,98.63
2022-11-10T08:24:59.717Z,98.68
2022-11-10T08:25:59.719Z,98.37
2022-11-10T08:26:59.712Z,99.25
2022-11-10T08:27:59.711Z,99.09
2022-11-10T08:28:59.704Z,98.68
2022-11-10T08:29:59.711Z,98.83
2022-11-10T08:31:05.133Z,99.04
2022-11-10T08:31:59.698Z,98.74
2022-11-10T08:32:59.713Z,98.63
2022-11-10T08:33:59.691Z,98.83
2022-11-10T08:34:59.686Z,98.94
2022-11-10T08:35:59.683Z,98.74
2022-11-10T08:36:59.678Z,98.94
2022-11-10T08:37:59.677Z,99.04
2022-11-10T08:38:59.676Z,98.74
2022-11-10T08:39:59.669Z,98.83
2022-11-10T08:40:59.667Z,98.58
2022-11-10T08:41:59.667Z,98.90
2022-11-10T08:42:59.668Z,98.74
2022-11-10T08:43:59.664Z,98.83
2022-11-10T08:44:59.654Z,98.79
2022-11-10T08:45:59.653Z,99.20
2022-11-10T08:46:59.654Z,98.79
2022-11-10T08:47:59.648Z,98.69
2022-11-10T08:48:59.662Z,98.79
2022-11-10T08:49:59.640Z,98.79
2022-11-10T08:50:59.635Z,98.79
2022-11-10T08:51:59.632Z,98.99
2022-11-10T08:52:59.630Z,98.79
2022-11-10T08:53:59.628Z,98.85
2022-11-10T08:54:59.623Z,98.74
2022-11-10T08:55:59.619Z,99.26
2022-11-10T08:56:59.621Z,98.95
2022-11-10T08:57:59.614Z,99.15
2022-11-10T08:58:59.624Z,99.26
2022-11-10T08:59:59.610Z,98.65
2022-11-10T09:00:59.606Z,99.05
2022-11-10T09:01:59.615Z,98.74
2022-11-10T09:02:59.599Z,98.80
2022-11-10T09:03:59.600Z,98.80
2022-11-10T09:04:59.690Z,99.21
2022-11-10T09:05:59.591Z,99.21
2022-11-10T09:06:59.690Z,98.70
2022-11-10T09:07:59.583Z,98.90
2022-11-10T09:08:59.587Z,98.96
2022-11-10T09:10:07.067Z,99.27
2022-11-10T09:10:59.575Z,98.75
2022-11-10T09:11:59.570Z,98.65
2022-11-10T09:12:59.568Z,99.27
2022-11-10T09:13:59.571Z,99.06
2022-11-10T09:14:59.565Z,98.96
2022-11-10T09:15:59.574Z,99.06
2022-11-10T09:16:59.559Z,99.06
2022-11-10T09:17:59.556Z,98.91
2022-11-10T09:18:59.556Z,99.32
2022-11-10T09:19:59.595Z,99.16
2022-11-10T09:20:59.563Z,99.06
2022-11-10T09:21:59.544Z,98.81
2022-11-10T09:22:59.540Z,98.71
2022-11-10T09:23:59.546Z,98.71
2022-11-10T09:24:59.541Z,98.61
2022-11-10T09:25:59.533Z,98.61
2022-11-10T09:26:59.534Z,97.99
2022-11-10T09:27:59.529Z,97.58
2022-11-10T09:28:59.529Z,97.49
2022-11-10T09:29:59.522Z,97.54
2022-11-10T09:30:59.535Z,97.79
2022-11-10T09:31:59.518Z,97.99
2022-11-10T09:32:59.511Z,98.97
2022-11-10T09:33:59.517Z,98.25
2022-11-10T09:34:59.507Z,98.36
2022-11-10T09:35:59.504Z,98.05
2022-11-10T09:36:59.517Z,98.05
2022-11-10T09:37:59.505Z,98.05
2022-11-10T09:38:59.497Z,98.77
2022-11-10T09:40:01.360Z,98.56
2022-11-10T09:40:59.494Z,98.25
2022-11-10T09:41:59.486Z,97.95
2022-11-10T09:42:59.483Z,97.64
2022-11-10T09:43:59.490Z,97.85
2022-11-10T09:44:59.479Z,97.24
2022-11-10T09:45:59.479Z,97.24
2022-11-10T09:46:59.485Z,97.24
2022-11-10T09:47:59.477Z,97.95
2022-11-10T09:48:59.470Z,97.95
2022-11-10T09:49:59.465Z,97.49
2022-11-10T09:50:59.471Z,97.24
2022-11-10T09:51:59.463Z,97.13
2022-11-10T09:52:59.479Z,97.24
2022-11-10T09:53:59.456Z,97.49
2022-11-10T09:54:59.456Z,96.68
2022-11-10T09:55:59.446Z,96.88
2022-11-10T09:56:59.447Z,96.58
2022-11-10T09:57:59.443Z,96.92
2022-11-10T09:58:59.442Z,97.49
2022-11-10T09:59:59.436Z,97.49
2022-11-10T10:00:59.578Z,97.29
2022-11-10T10:01:59.491Z,97.39
2022-11-10T10:02:59.435Z,96.98
2022-11-10T10:03:59.428Z,96.68
2022-11-10T10:04:59.437Z,96.17
2022-11-10T10:05:59.424Z,96.27
2022-11-10T10:07:10.857Z,96.17
2022-11-10T10:07:59.467Z,96.47
2022-11-10T10:08:59.432Z,95.76
2022-11-10T10:09:59.411Z,96.06
2022-11-10T10:10:59.411Z,96.06
2022-11-10T10:11:59.405Z,95.86
2022-11-10T10:12:59.403Z,95.45
2022-11-10T10:13:59.400Z,95.41
2022-11-10T10:14:59.399Z,95.41
2022-11-10T10:15:59.393Z,96.22
2022-11-10T10:16:59.390Z,95.92
2022-11-10T10:17:59.387Z,96.27
2022-11-10T10:18:59.390Z,95.92
2022-11-10T10:19:59.386Z,95.61
2022-11-10T10:20:59.387Z,96.12
2022-11-10T10:21:59.378Z,95.51
2022-11-10T10:22:59.378Z,95.92
2022-11-10T10:24:21.140Z,95.41
2022-11-10T10:24:59.390Z,95.61
2022-11-10T10:25:59.368Z,95.31
2022-11-10T10:26:59.368Z,95.72
2022-11-10T10:27:59.366Z,96.12
2022-11-10T10:28:59.359Z,96.22
2022-11-10T10:29:59.359Z,96.43
2022-11-10T10:30:59.356Z,96.18
2022-11-10T10:31:59.353Z,96.33
2022-11-10T10:32:59.351Z,96.22
2022-11-10T10:33:59.346Z,95.92
2022-11-10T10:34:59.346Z,96.08
2022-11-10T10:35:59.342Z,96.08
2022-11-10T10:36:59.341Z,95.97
2022-11-10T10:37:59.336Z,95.87
2022-11-10T10:38:59.335Z,96.59
2022-11-10T10:39:59.331Z,96.18
2022-11-10T10:40:59.357Z,96.48
2022-11-10T10:41:59.334Z,96.48
2022-11-10T10:42:59.327Z,96.59
2022-11-10T10:43:59.321Z,97.00
2022-11-10T10:44:59.365Z,96.69
2022-11-10T10:45:59.318Z,96.08
2022-11-10T10:46:59.332Z,96.18
2022-11-10T10:47:59.312Z,95.36
2022-11-10T10:49:26.907Z,95.36
2022-11-10T10:49:59.305Z,94.85
2022-11-10T10:50:59.305Z,94.24
2022-11-10T10:51:59.302Z,94.45
2022-11-10T10:52:59.301Z,93.99
2022-11-10T10:53:59.496Z,94.09
2022-11-10T10:54:59.297Z,94.40
2022-11-10T10:55:59.290Z,94.81
2022-11-10T10:56:59.339Z,93.99
2022-11-10T10:57:59.284Z,93.99
2022-11-10T10:58:59.282Z,93.99
2022-11-10T10:59:59.280Z,93.69
2022-11-10T11:00:59.348Z,93.93
2022-11-10T11:01:59.343Z,93.99
2022-11-10T11:03:04.294Z,93.99
2022-11-10T11:03:59.270Z,93.59
2022-11-10T11:04:59.272Z,93.89
2022-11-10T11:05:59.267Z,93.59
2022-11-10T11:06:59.390Z,93.59
2022-11-10T11:07:59.266Z,93.59
2022-11-10T11:09:00.120Z,93.89
2022-11-10T11:09:59.254Z,93.99
2022-11-10T11:10:59.270Z,94.20
2022-11-10T11:11:59.248Z,94.50
2022-11-10T11:12:59.268Z,93.79
2022-11-10T11:13:59.247Z,94.40
2022-11-10T11:14:59.247Z,94.30
2022-11-10T11:15:59.248Z,94.50
2022-11-10T11:16:59.293Z,93.69
2022-11-10T11:17:59.236Z,93.28
2022-11-10T11:18:59.240Z,92.57
2022-11-10T11:20:00.234Z,92.93
2022-11-10T11:20:59.229Z,91.50
2022-11-10T11:21:59.224Z,91.20
2022-11-10T11:22:59.225Z,91.91
2022-11-10T11:23:59.222Z,90.99
2022-11-10T11:24:59.218Z,91.61
2022-11-10T11:25:59.221Z,91.20
2022-11-10T11:26:59.223Z,91.91
2022-11-10T11:27:59.210Z,91.81
2022-11-10T11:28:59.226Z,91.81
2022-11-10T11:29:59.206Z,90.48
2022-11-10T11:30:59.205Z,90.59
2022-11-10T11:31:59.199Z,91.09
2022-11-10T11:32:59.199Z,91.91
2022-11-10T11:33:59.196Z,91.71
2022-11-10T11:34:59.202Z,91.91
2022-11-10T11:35:59.192Z,91.09
2022-11-10T11:36:59.192Z,91.91
2022-11-10T11:37:59.189Z,91.91
2022-11-10T11:38:59.185Z,92.32
2022-11-10T11:39:59.179Z,92.52
2022-11-10T11:40:59.179Z,92.93
2022-11-10T11:41:59.182Z,92.93
2022-11-10T11:42:59.174Z,92.93
2022-11-10T11:43:59.171Z,91.81
2022-11-10T11:44:59.195Z,91.91
2022-11-10T11:45:59.164Z,91.91
2022-11-10T11:46:59.169Z,91.40
2022-11-10T11:47:59.162Z,91.09
2022-11-10T11:48:59.162Z,91.71
2022-11-10T11:49:59.158Z,91.09
2022-11-10T11:50:59.159Z,91.81
2022-11-10T11:51:59.152Z,92.52
2022-11-10T11:52:59.160Z,92.72
2022-11-10T11:53:59.145Z,93.24
2022-11-10T11:54:59.145Z,91.91
2022-11-10T11:55:59.140Z,91.09
2022-11-10T11:56:59.146Z,91.71
2022-11-10T11:57:59.142Z,91.71
2022-11-10T11:58:59.142Z,91.40
2022-11-10T11:59:59.145Z,92.11
2022-11-10T12:00:59.153Z,91.09
2022-11-10T12:01:59.163Z,90.59
2022-11-10T12:02:59.168Z,90.99
2022-11-10T12:03:59.123Z,91.81
2022-11-10T12:04:59.126Z,91.71
2022-11-10T12:05:59.117Z,91.40
2022-11-10T12:06:59.130Z,91.40
2022-11-10T12:07:59.114Z,90.79
2022-11-10T12:08:59.112Z,90.44
2022-11-10T12:09:59.113Z,90.28
2022-11-10T12:10:59.105Z,90.38
2022-11-10T12:11:59.104Z,90.28
2022-11-10T12:12:59.104Z,89.42
2022-11-10T12:13:59.117Z,89.67
2022-11-10T12:14:59.099Z,88.81
2022-11-10T12:15:59.095Z,87.49
2022-11-10T12:16:59.116Z,85.75
2022-11-10T12:17:59.092Z,85.75
2022-11-10T12:18:59.090Z,86.88
2022-11-10T12:19:59.086Z,86.98
2022-11-10T12:20:59.086Z,87.08
2022-11-10T12:21:59.078Z,87.08
2022-11-10T12:22:59.081Z,85.86
2022-11-10T12:23:59.075Z,85.25
2022-11-10T12:24:59.080Z,84.74
2022-11-10T12:25:59.108Z,85.00
2022-11-10T12:26:59.069Z,84.29
2022-11-10T12:27:59.068Z,85.31
2022-11-10T12:28:59.065Z,85.66
2022-11-10T12:29:59.064Z,86.43
2022-11-10T12:31:01.764Z,85.51
2022-11-10T12:31:59.062Z,85.25
2022-11-10T12:32:59.077Z,84.19
2022-11-10T12:33:59.055Z,83.58
2022-11-10T12:34:59.056Z,83.37
2022-11-10T12:35:59.055Z,84.19
2022-11-10T12:36:59.048Z,84.29
2022-11-10T12:37:59.043Z,84.39
2022-11-10T12:39:00.385Z,84.29
2022-11-10T12:39:59.037Z,85.00
2022-11-10T12:40:59.040Z,86.13
2022-11-10T12:41:59.031Z,85.21
2022-11-10T12:42:59.038Z,85.31
2022-11-10T12:43:59.028Z,85.31
2022-11-10T12:44:59.037Z,85.21
2022-11-10T12:45:59.027Z,84.19
2022-11-10T12:46:59.025Z,84.59
2022-11-10T12:47:59.024Z,84.29
2022-11-10T12:48:59.042Z,84.29
2022-11-10T12:49:59.016Z,85.21
2022-11-10T12:50:59.016Z,84.19
2022-11-10T12:51:59.011Z,83.27
2022-11-10T12:52:59.007Z,82.87